Time;durP1;ratioP1;P1;durP2;ratioP2;P2;SDS_P1;SDS_P2;PMS_P1;PMS_P2;Temp;Humidity;BMP_temperature;BMP_pressure;BME280_temperature;BME280_humidity;BME280_pressure;Samples;Min_cycle;Max_cycle;Signal;HPM_P1;HPM_P2
2021/06/11 00:01:06;;;;;;;0.10;0.10;;;;;;;;;;5103029;28;20208;-66
2021/06/11 00:03:32;;;;;;;0.00;0.00;;;;;;;;;;5102953;28;20213;-65
2021/06/11 00:05:58;;;;;;;0.00;0.00;;;;;;;;;;5100616;28;20352;-66
2021/06/11 00:08:24;;;;;;;0.00;0.00;;;;;;;;;;5102366;28;20201;-66
2021/06/11 00:10:49;;;;;;;0.10;0.10;;;;;;;;;;5102881;28;20202;-66
2021/06/11 00:13:15;;;;;;;0.00;0.00;;;;;;;;;;5102962;28;20306;-66
2021/06/11 00:15:42;;;;;;;0.00;0.00;;;;;;;;;;5102723;28;20241;-66
2021/06/11 00:18:08;;;;;;;0.00;0.00;;;;;;;;;;5103024;28;20223;-66
2021/06/11 00:20:34;;;;;;;0.00;0.00;;;;;;;;;;5102446;28;20199;-66
2021/06/11 00:23:00;;;;;;;0.00;0.00;;;;;;;;;;5104741;28;20343;-66
2021/06/11 00:25:26;;;;;;;0.00;0.00;;;;;;;;;;5088159;28;20666;-67
2021/06/11 00:27:52;;;;;;;0.00;0.00;;;;;;;;;;5102816;28;20219;-66
2021/06/11 00:30:19;;;;;;;0.00;0.00;;;;;;;;;;5102659;28;20380;-66
2021/06/11 00:32:46;;;;;;;0.10;0.10;;;;;;;;;;5101542;28;20204;-66
2021/06/11 00:35:13;;;;;;;0.00;0.00;;;;;;;;;;5089618;28;20206;-67
2021/06/11 00:37:39;;;;;;;0.00;0.00;;;;;;;;;;5105557;28;20202;-66
2021/06/11 00:40:06;;;;;;;0.00;0.00;;;;;;;;;;5102641;28;20212;-66
2021/06/11 00:42:32;;;;;;;0.00;0.00;;;;;;;;;;5102651;28;20251;-66
2021/06/11 00:44:59;;;;;;;0.10;0.10;;;;;;;;;;5102625;28;20201;-66
2021/06/11 00:47:24;;;;;;;0.00;0.00;;;;;;;;;;5102888;28;20486;-67
2021/06/11 00:49:51;;;;;;;0.00;0.00;;;;;;;;;;5102481;28;20214;-66
2021/06/11 00:52:17;;;;;;;0.00;0.00;;;;;;;;;;5102396;28;20253;-66
2021/06/11 00:54:43;;;;;;;0.00;0.00;;;;;;;;;;5104546;28;20236;-66
2021/06/11 00:57:09;;;;;;;0.00;0.00;;;;;;;;;;5102163;28;20412;-66
2021/06/11 00:59:35;;;;;;;0.00;0.00;;;;;;;;;;5104295;28;20224;-65
2021/06/11 01:02:01;;;;;;;0.00;0.00;;;;;;;;;;5106081;28;20204;-66
2021/06/11 01:04:26;;;;;;;0.00;0.00;;;;;;;;;;5106126;28;20254;-66
2021/06/11 01:06:54;;;;;;;0.05;0.05;;;;;;;;;;5106695;28;20298;-66
2021/06/11 01:09:20;;;;;;;0.00;0.00;;;;;;;;;;5104454;28;20466;-65
2021/06/11 01:11:46;;;;;;;0.00;0.00;;;;;;;;;;5105939;28;20207;-66
2021/06/11 01:14:12;;;;;;;0.00;0.00;;;;;;;;;;5106451;28;20258;-65
2021/06/11 01:16:38;;;;;;;0.00;0.00;;;;;;;;;;5099522;28;20208;-66
2021/06/11 01:19:04;;;;;;;0.00;0.00;;;;;;;;;;5085920;28;20302;-66
2021/06/11 01:21:31;;;;;;;0.05;0.05;;;;;;;;;;5090040;28;20201;-66
2021/06/11 01:24:05;;;;;;;0.00;0.00;;;;;;;;;;5095395;28;20282;-66
2021/06/11 01:29:18;;;;;;;0.00;0.00;;;;;;;;;;5093403;28;20202;-66
2021/06/11 01:31:46;;;;;;;0.00;0.00;;;;;;;;;;5099543;28;20205;-66
2021/06/11 01:34:13;;;;;;;0.00;0.00;;;;;;;;;;5098615;28;20492;-66
2021/06/11 01:36:40;;;;;;;0.00;0.00;;;;;;;;;;5105819;28;20322;-66
2021/06/11 01:39:07;;;;;;;0.00;0.00;;;;;;;;;;5106242;28;20335;-66
2021/06/11 01:41:35;;;;;;;0.00;0.00;;;;;;;;;;5107263;28;20202;-65
2021/06/11 01:44:01;;;;;;;0.00;0.00;;;;;;;;;;5105828;28;20386;-65
2021/06/11 01:46:28;;;;;;;0.00;0.00;;;;;;;;;;5105004;28;20237;-65
2021/06/11 01:48:54;;;;;;;0.00;0.00;;;;;;;;;;5105181;28;20495;-65
2021/06/11 01:51:20;;;;;;;0.08;0.08;;;;;;;;;;5105401;28;20229;-65
2021/06/11 01:53:47;;;;;;;0.00;0.00;;;;;;;;;;5088199;28;20473;-64
2021/06/11 01:56:14;;;;;;;0.00;0.00;;;;;;;;;;5089310;28;20495;-65
2021/06/11 01:58:42;;;;;;;0.00;0.00;;;;;;;;;;5098412;28;20212;-65
2021/06/11 02:01:08;;;;;;;0.10;0.10;;;;;;;;;;5084685;28;20210;-64
2021/06/11 02:03:34;;;;;;;0.00;0.00;;;;;;;;;;5085231;28;20228;-65
2021/06/11 02:06:00;;;;;;;0.00;0.00;;;;;;;;;;5084635;28;20393;-65
2021/06/11 02:08:26;;;;;;;0.00;0.00;;;;;;;;;;5084693;28;20234;-66
2021/06/11 02:10:52;;;;;;;0.00;0.00;;;;;;;;;;5098784;28;20212;-65
2021/06/11 02:13:18;;;;;;;0.00;0.00;;;;;;;;;;5093690;28;20272;-65
2021/06/11 02:15:45;;;;;;;0.03;0.03;;;;;;;;;;5084618;28;20225;-65
2021/06/11 02:18:12;;;;;;;0.00;0.00;;;;;;;;;;5085022;28;20354;-65
2021/06/11 02:20:38;;;;;;;0.03;0.03;;;;;;;;;;5096233;28;20522;-64
2021/06/11 02:23:04;;;;;;;0.00;0.00;;;;;;;;;;5087255;28;20201;-65
2021/06/11 02:25:30;;;;;;;0.00;0.00;;;;;;;;;;5091811;28;20554;-64
2021/06/11 02:27:57;;;;;;;0.00;0.00;;;;;;;;;;5087474;28;20204;-64
2021/06/11 02:30:23;;;;;;;0.00;0.00;;;;;;;;;;5097023;28;20492;-65
2021/06/11 02:32:50;;;;;;;0.00;0.00;;;;;;;;;;5084187;28;20369;-64
2021/06/11 02:35:17;;;;;;;0.00;0.00;;;;;;;;;;5084144;28;20206;-64
2021/06/11 02:37:44;;;;;;;0.08;0.08;;;;;;;;;;5084681;28;20514;-64
2021/06/11 02:40:10;;;;;;;0.00;0.00;;;;;;;;;;5083914;28;20522;-65
2021/06/11 02:42:36;;;;;;;0.00;0.00;;;;;;;;;;5084854;28;20212;-65
2021/06/11 02:45:07;;;;;;;0.10;0.10;;;;;;;;;;5099975;28;20224;-65
2021/06/11 02:47:36;;;;;;;0.00;0.00;;;;;;;;;;5084210;28;20209;-65
2021/06/11 02:50:05;;;;;;;0.00;0.00;;;;;;;;;;5084927;28;20216;-65
2021/06/11 02:52:33;;;;;;;0.00;0.00;;;;;;;;;;5096580;28;20229;-65
2021/06/11 02:55:00;;;;;;;0.00;0.00;;;;;;;;;;5084010;28;20385;-64
2021/06/11 02:57:29;;;;;;;0.00;0.00;;;;;;;;;;5083823;28;20543;-65
2021/06/11 02:59:59;;;;;;;0.00;0.00;;;;;;;;;;5098383;28;20203;-65
2021/06/11 03:02:28;;;;;;;0.00;0.00;;;;;;;;;;5088635;28;20192;-64
2021/06/11 03:04:55;;;;;;;0.00;0.00;;;;;;;;;;5093878;28;20202;-64
2021/06/11 03:07:25;;;;;;;0.10;0.10;;;;;;;;;;5083190;28;20226;-64
2021/06/11 03:09:54;;;;;;;0.00;0.00;;;;;;;;;;5083945;28;20421;-65
2021/06/11 03:12:20;;;;;;;0.00;0.00;;;;;;;;;;5083533;28;20204;-64
2021/06/11 03:14:46;;;;;;;0.00;0.00;;;;;;;;;;5085064;28;20217;-64
2021/06/11 03:17:12;;;;;;;0.00;0.00;;;;;;;;;;5102344;28;20209;-65
2021/06/11 03:19:39;;;;;;;0.00;0.00;;;;;;;;;;5083774;28;20212;-65
2021/06/11 03:22:07;;;;;;;0.00;0.00;;;;;;;;;;5082911;28;20258;-65
2021/06/11 03:24:39;;;;;;;0.00;0.00;;;;;;;;;;5111806;28;20261;-64
2021/06/11 03:27:07;;;;;;;0.00;0.00;;;;;;;;;;5094344;28;20242;-65
2021/06/11 03:29:33;;;;;;;0.00;0.00;;;;;;;;;;5092485;28;20292;-65
2021/06/11 03:32:02;;;;;;;0.00;0.00;;;;;;;;;;5109912;28;20209;-65
2021/06/11 03:34:34;;;;;;;0.00;0.00;;;;;;;;;;5116403;28;20209;-65
2021/06/11 03:37:03;;;;;;;0.00;0.00;;;;;;;;;;5091863;28;20205;-65
2021/06/11 03:39:29;;;;;;;0.00;0.00;;;;;;;;;;5088294;28;20210;-65
2021/06/11 03:41:56;;;;;;;0.00;0.00;;;;;;;;;;5090150;28;20216;-65
2021/06/11 03:44:23;;;;;;;0.00;0.00;;;;;;;;;;5090509;28;20213;-65
2021/06/11 03:46:49;;;;;;;0.00;0.00;;;;;;;;;;5087546;28;20241;-66
2021/06/11 03:49:15;;;;;;;0.00;0.00;;;;;;;;;;5093793;28;20207;-65
2021/06/11 03:51:43;;;;;;;0.00;0.00;;;;;;;;;;5100084;28;20507;-65
2021/06/11 03:54:11;;;;;;;0.00;0.00;;;;;;;;;;5093618;28;20206;-65
2021/06/11 03:56:37;;;;;;;0.00;0.00;;;;;;;;;;5098876;28;20393;-65
2021/06/11 03:59:04;;;;;;;0.00;0.00;;;;;;;;;;5111433;28;20215;-65
2021/06/11 04:01:32;;;;;;;0.00;0.00;;;;;;;;;;5104584;28;20502;-65
2021/06/11 04:03:58;;;;;;;0.00;0.00;;;;;;;;;;5103301;28;20211;-66
2021/06/11 04:06:26;;;;;;;0.00;0.00;;;;;;;;;;5082549;28;20250;-66
2021/06/11 04:08:56;;;;;;;0.00;0.00;;;;;;;;;;5083146;28;20359;-66
2021/06/11 04:11:25;;;;;;;0.00;0.00;;;;;;;;;;5082827;28;20204;-66
2021/06/11 04:13:54;;;;;;;0.00;0.00;;;;;;;;;;5082935;28;20211;-66
2021/06/11 04:16:23;;;;;;;0.00;0.00;;;;;;;;;;5089209;28;20266;-66
2021/06/11 04:18:50;;;;;;;0.00;0.00;;;;;;;;;;5093218;28;20499;-66
2021/06/11 04:21:18;;;;;;;0.00;0.00;;;;;;;;;;5116770;28;20200;-66
2021/06/11 04:23:44;;;;;;;0.00;0.00;;;;;;;;;;5091588;28;20490;-66
2021/06/11 04:26:10;;;;;;;0.00;0.00;;;;;;;;;;5085442;28;20237;-66
2021/06/11 04:28:37;;;;;;;0.00;0.00;;;;;;;;;;5093319;28;20531;-66
2021/06/11 04:31:03;;;;;;;0.00;0.00;;;;;;;;;;5082335;28;20204;-66
2021/06/11 04:33:30;;;;;;;0.00;0.00;;;;;;;;;;5082542;28;20208;-65
2021/06/11 04:35:56;;;;;;;0.00;0.00;;;;;;;;;;5101714;28;20204;-66
2021/06/11 04:38:23;;;;;;;0.00;0.00;;;;;;;;;;5092333;28;20229;-66
2021/06/11 04:40:49;;;;;;;0.00;0.00;;;;;;;;;;5095092;28;20207;-65
2021/06/11 04:43:15;;;;;;;0.00;0.00;;;;;;;;;;5090674;28;20366;-65
2021/06/11 04:45:41;;;;;;;0.00;0.00;;;;;;;;;;5096807;28;20221;-65
2021/06/11 04:48:07;;;;;;;0.00;0.00;;;;;;;;;;5086500;28;20509;-66
2021/06/11 04:50:34;;;;;;;0.00;0.00;;;;;;;;;;5088805;28;20405;-66
2021/06/11 04:53:00;;;;;;;0.00;0.00;;;;;;;;;;5097380;28;20214;-66
2021/06/11 04:55:25;;;;;;;0.00;0.00;;;;;;;;;;5106319;28;20253;-66
2021/06/11 04:57:53;;;;;;;0.00;0.00;;;;;;;;;;5094070;28;20282;-66
2021/06/11 05:00:19;;;;;;;0.00;0.00;;;;;;;;;;5089340;28;20387;-66
2021/06/11 05:02:45;;;;;;;0.00;0.00;;;;;;;;;;5086179;28;20476;-65
2021/06/11 05:05:11;;;;;;;0.00;0.00;;;;;;;;;;5086049;28;20206;-66
2021/06/11 05:07:38;;;;;;;0.00;0.00;;;;;;;;;;5096300;28;20224;-65
2021/06/11 05:10:04;;;;;;;0.00;0.00;;;;;;;;;;5085941;28;20208;-66
2021/06/11 05:12:29;;;;;;;0.00;0.00;;;;;;;;;;5088499;28;20263;-66
2021/06/11 05:14:55;;;;;;;0.00;0.00;;;;;;;;;;5097488;28;20213;-66
2021/06/11 05:17:21;;;;;;;0.00;0.00;;;;;;;;;;5086171;28;20211;-66
2021/06/11 05:19:46;;;;;;;0.00;0.00;;;;;;;;;;5106020;28;20428;-66
2021/06/11 05:22:12;;;;;;;0.00;0.00;;;;;;;;;;5095534;28;20228;-66
2021/06/11 05:24:39;;;;;;;0.00;0.00;;;;;;;;;;5107814;28;20238;-66
2021/06/11 05:27:05;;;;;;;0.00;0.00;;;;;;;;;;5105832;28;20383;-65
2021/06/11 05:29:31;;;;;;;0.00;0.00;;;;;;;;;;5088446;28;20209;-65
2021/06/11 05:31:57;;;;;;;0.00;0.00;;;;;;;;;;5085224;28;20519;-65
2021/06/11 05:34:23;;;;;;;0.00;0.00;;;;;;;;;;5084827;28;20244;-65
2021/06/11 05:36:48;;;;;;;0.00;0.00;;;;;;;;;;5085078;28;20201;-65
2021/06/11 05:39:14;;;;;;;0.00;0.00;;;;;;;;;;5099383;28;20206;-65
2021/06/11 05:41:41;;;;;;;0.00;0.00;;;;;;;;;;5100125;28;20253;-65
2021/06/11 05:44:07;;;;;;;0.00;0.00;;;;;;;;;;5088917;28;20209;-65
2021/06/11 05:46:33;;;;;;;0.20;0.20;;;;;;;;;;5087454;28;20265;-66
2021/06/11 05:48:58;;;;;;;0.00;0.00;;;;;;;;;;5105409;28;20204;-65
2021/06/11 05:51:24;;;;;;;0.00;0.00;;;;;;;;;;5104182;28;20203;-65
2021/06/11 05:53:51;;;;;;;0.00;0.00;;;;;;;;;;5086273;28;20295;-65
2021/06/11 05:56:16;;;;;;;0.00;0.00;;;;;;;;;;5092704;28;20487;-65
2021/06/11 05:58:43;;;;;;;0.00;0.00;;;;;;;;;;5105143;28;20230;-65
2021/06/11 06:01:09;;;;;;;0.00;0.00;;;;;;;;;;5094026;28;20212;-66
2021/06/11 06:03:35;;;;;;;0.03;0.03;;;;;;;;;;5085111;28;20548;-65
2021/06/11 06:06:01;;;;;;;0.00;0.00;;;;;;;;;;5084876;28;20527;-67
2021/06/11 06:08:27;;;;;;;0.00;0.00;;;;;;;;;;5094323;28;20265;-66
2021/06/11 06:10:52;;;;;;;0.00;0.00;;;;;;;;;;5096286;28;20219;-66
2021/06/11 06:13:18;;;;;;;0.10;0.10;;;;;;;;;;5087321;28;20201;-67
2021/06/11 06:15:46;;;;;;;0.00;0.00;;;;;;;;;;5094694;28;20195;-67
2021/06/11 06:18:13;;;;;;;0.00;0.00;;;;;;;;;;5091626;28;20232;-67
2021/06/11 06:20:39;;;;;;;0.00;0.00;;;;;;;;;;5089798;28;20369;-67
2021/06/11 06:23:04;;;;;;;0.00;0.00;;;;;;;;;;5095347;28;20207;-66
2021/06/11 06:25:30;;;;;;;0.00;0.00;;;;;;;;;;5097138;28;20235;-66
2021/06/11 06:27:56;;;;;;;0.00;0.00;;;;;;;;;;5089962;28;20518;-66
2021/06/11 06:30:23;;;;;;;0.00;0.00;;;;;;;;;;5083866;28;20196;-68
2021/06/11 06:32:50;;;;;;;0.00;0.00;;;;;;;;;;5107855;28;20347;-66
2021/06/11 06:35:16;;;;;;;0.00;0.00;;;;;;;;;;5111733;28;20205;-67
2021/06/11 06:37:42;;;;;;;0.00;0.00;;;;;;;;;;5106831;28;20616;-66
2021/06/11 06:40:09;;;;;;;0.00;0.00;;;;;;;;;;5101598;28;20220;-66
2021/06/11 06:42:34;;;;;;;0.00;0.00;;;;;;;;;;5094726;28;20485;-66
2021/06/11 06:45:00;;;;;;;0.00;0.00;;;;;;;;;;5095523;28;20212;-66
2021/06/11 06:47:26;;;;;;;0.00;0.00;;;;;;;;;;5092739;28;20405;-67
2021/06/11 06:49:53;;;;;;;0.00;0.00;;;;;;;;;;5112974;28;20208;-68
2021/06/11 06:52:19;;;;;;;0.00;0.00;;;;;;;;;;5090918;28;20211;-68
2021/06/11 06:54:45;;;;;;;0.00;0.00;;;;;;;;;;5104452;28;20220;-67
2021/06/11 06:57:11;;;;;;;0.00;0.00;;;;;;;;;;5107218;28;20200;-71
2021/06/11 06:59:36;;;;;;;0.00;0.00;;;;;;;;;;5106755;28;20385;-64
2021/06/11 07:02:02;;;;;;;0.00;0.00;;;;;;;;;;5109462;28;20206;-65
2021/06/11 07:04:28;;;;;;;0.00;0.00;;;;;;;;;;5097340;28;20309;-65
2021/06/11 07:06:55;;;;;;;0.00;0.00;;;;;;;;;;5110064;28;20295;-65
2021/06/11 07:09:21;;;;;;;0.00;0.00;;;;;;;;;;5089495;28;20536;-66
2021/06/11 07:11:48;;;;;;;0.00;0.00;;;;;;;;;;5092912;28;20265;-64
2021/06/11 07:14:14;;;;;;;0.00;0.00;;;;;;;;;;5083301;28;20206;-64
2021/06/11 07:16:40;;;;;;;0.00;0.00;;;;;;;;;;5094639;28;20195;-65
2021/06/11 07:19:05;;;;;;;0.00;0.00;;;;;;;;;;5097996;28;20228;-65
2021/06/11 07:21:31;;;;;;;0.00;0.00;;;;;;;;;;5110433;28;20206;-65
2021/06/11 07:23:58;;;;;;;0.00;0.00;;;;;;;;;;5103391;28;20566;-65
2021/06/11 07:26:24;;;;;;;0.00;0.00;;;;;;;;;;5106073;28;20229;-65
2021/06/11 07:28:50;;;;;;;0.10;0.10;;;;;;;;;;5116745;28;20218;-65
2021/06/11 07:31:16;;;;;;;0.00;0.00;;;;;;;;;;5108350;28;20510;-66
2021/06/11 07:33:42;;;;;;;0.00;0.00;;;;;;;;;;5110486;28;20250;-65
2021/06/11 07:36:08;;;;;;;0.00;0.00;;;;;;;;;;5106213;28;20257;-66
2021/06/11 07:38:34;;;;;;;0.00;0.00;;;;;;;;;;5104708;28;20202;-66
2021/06/11 07:41:01;;;;;;;0.00;0.00;;;;;;;;;;5096044;28;20199;-65
2021/06/11 07:43:27;;;;;;;0.08;0.08;;;;;;;;;;5115021;28;20203;-65
2021/06/11 07:45:53;;;;;;;0.00;0.00;;;;;;;;;;5092796;28;20200;-65
2021/06/11 07:48:19;;;;;;;0.00;0.00;;;;;;;;;;5097041;28;20536;-65
2021/06/11 07:50:46;;;;;;;0.00;0.00;;;;;;;;;;5103574;28;20213;-70
2021/06/11 07:53:12;;;;;;;0.00;0.00;;;;;;;;;;5099653;28;20213;-71
2021/06/11 07:55:39;;;;;;;0.00;0.00;;;;;;;;;;5104324;28;20256;-71
2021/06/11 07:58:06;;;;;;;0.00;0.00;;;;;;;;;;5101173;28;20533;-70
2021/06/11 08:00:32;;;;;;;0.00;0.00;;;;;;;;;;5101990;28;20439;-71
2021/06/11 08:02:58;;;;;;;0.00;0.00;;;;;;;;;;5103657;28;20225;-71
2021/06/11 08:05:25;;;;;;;0.00;0.00;;;;;;;;;;5099407;28;20206;-71
2021/06/11 08:07:51;;;;;;;0.00;0.00;;;;;;;;;;5101521;28;20234;-71
2021/06/11 08:10:18;;;;;;;0.08;0.08;;;;;;;;;;5101477;28;20234;-71
2021/06/11 08:12:44;;;;;;;0.00;0.00;;;;;;;;;;5113647;28;20283;-71
2021/06/11 08:15:12;;;;;;;0.00;0.00;;;;;;;;;;5107338;28;20203;-70
2021/06/11 08:17:38;;;;;;;0.00;0.00;;;;;;;;;;5106593;28;20199;-71
2021/06/11 08:20:06;;;;;;;0.00;0.00;;;;;;;;;;5100773;28;20222;-71
2021/06/11 08:22:32;;;;;;;0.00;0.00;;;;;;;;;;5089449;28;20210;-71
2021/06/11 08:24:58;;;;;;;0.00;0.00;;;;;;;;;;5097316;28;20298;-71
2021/06/11 08:27:24;;;;;;;0.10;0.10;;;;;;;;;;5088074;28;20578;-73
2021/06/11 08:29:50;;;;;;;0.00;0.00;;;;;;;;;;5108658;28;20205;-70
2021/06/11 08:32:18;;;;;;;0.00;0.00;;;;;;;;;;5096261;28;20210;-71
2021/06/11 08:34:44;;;;;;;0.00;0.00;;;;;;;;;;5097191;28;20206;-70
2021/06/11 08:37:11;;;;;;;0.00;0.00;;;;;;;;;;5106827;28;20199;-70
2021/06/11 08:39:37;;;;;;;0.03;0.03;;;;;;;;;;5096740;28;20207;-70
2021/06/11 08:42:05;;;;;;;0.00;0.00;;;;;;;;;;5102200;28;20198;-70
2021/06/11 08:44:32;;;;;;;0.25;0.25;;;;;;;;;;5092588;28;20199;-71
2021/06/11 08:46:58;;;;;;;0.00;0.00;;;;;;;;;;5095411;28;20223;-71
2021/06/11 08:49:26;;;;;;;0.00;0.00;;;;;;;;;;5094242;28;20200;-70
2021/06/11 08:51:55;;;;;;;0.00;0.00;;;;;;;;;;5097895;28;20205;-71
2021/06/11 08:54:21;;;;;;;0.00;0.00;;;;;;;;;;5100507;28;20203;-65
2021/06/11 08:56:49;;;;;;;0.00;0.00;;;;;;;;;;5104740;28;20199;-66
2021/06/11 08:59:15;;;;;;;0.00;0.00;;;;;;;;;;5113521;28;20214;-66
2021/06/11 09:01:42;;;;;;;0.00;0.00;;;;;;;;;;5087988;28;20200;-66
2021/06/11 09:04:11;;;;;;;0.00;0.00;;;;;;;;;;5087020;28;20493;-65
2021/06/11 09:06:38;;;;;;;0.00;0.00;;;;;;;;;;5091675;28;20379;-66
2021/06/11 09:09:05;;;;;;;0.00;0.00;;;;;;;;;;5096511;28;20485;-66
2021/06/11 09:11:32;;;;;;;0.00;0.00;;;;;;;;;;5089779;28;20424;-68
2021/06/11 09:14:02;;;;;;;0.00;0.00;;;;;;;;;;5096076;28;20485;-68
2021/06/11 09:16:29;;;;;;;0.00;0.00;;;;;;;;;;5099904;28;20199;-68
2021/06/11 09:18:56;;;;;;;0.00;0.00;;;;;;;;;;5099255;28;20207;-68
2021/06/11 09:21:27;;;;;;;0.00;0.00;;;;;;;;;;5113118;28;20272;-69
2021/06/11 09:24:19;;;;;;;0.00;0.00;;;;;;;;;;5100795;28;20199;-70
2021/06/11 09:27:02;;;;;;;0.00;0.00;;;;;;;;;;5092275;28;20295;-69
2021/06/11 09:29:29;;;;;;;0.00;0.00;;;;;;;;;;5099451;28;20206;-69
2021/06/11 09:32:08;;;;;;;0.00;0.00;;;;;;;;;;5086521;28;20199;-69
2021/06/11 09:34:34;;;;;;;0.00;0.00;;;;;;;;;;5103768;28;20198;-73
2021/06/11 09:37:02;;;;;;;0.00;0.00;;;;;;;;;;5105189;28;20199;-72
2021/06/11 09:39:41;;;;;;;0.00;0.00;;;;;;;;;;5108680;28;20487;-69
2021/06/11 09:42:10;;;;;;;0.00;0.00;;;;;;;;;;5101413;28;20206;-68
2021/06/11 09:44:36;;;;;;;0.03;0.03;;;;;;;;;;5093231;28;20225;-68
2021/06/11 09:47:02;;;;;;;0.10;0.10;;;;;;;;;;5105397;28;20337;-68
2021/06/11 09:49:39;;;;;;;0.00;0.00;;;;;;;;;;5108387;28;20247;-69
2021/06/11 09:52:05;;;;;;;0.55;0.40;;;;;;;;;;5103391;28;20199;-67
2021/06/11 09:54:31;;;;;;;0.00;0.00;;;;;;;;;;5102498;28;20214;-71
2021/06/11 09:56:57;;;;;;;0.00;0.00;;;;;;;;;;5107410;28;20423;-68
2021/06/11 09:59:38;;;;;;;0.00;0.00;;;;;;;;;;5115154;28;20213;-69
2021/06/11 10:02:12;;;;;;;0.00;0.00;;;;;;;;;;5106430;28;20202;-68
2021/06/11 10:04:39;;;;;;;0.00;0.00;;;;;;;;;;5097109;28;20203;-68
2021/06/11 10:07:05;;;;;;;0.00;0.00;;;;;;;;;;5103526;28;20223;-68
2021/06/11 10:09:31;;;;;;;0.00;0.00;;;;;;;;;;5097122;28;20203;-68
2021/06/11 10:11:57;;;;;;;0.00;0.00;;;;;;;;;;5099522;28;20370;-69
2021/06/11 10:14:23;;;;;;;0.00;0.00;;;;;;;;;;5094216;28;20205;-70
2021/06/11 10:16:49;;;;;;;0.00;0.00;;;;;;;;;;5095945;28;20199;-69
2021/06/11 10:19:16;;;;;;;0.00;0.00;;;;;;;;;;5092639;28;20306;-69
2021/06/11 10:21:44;;;;;;;0.00;0.00;;;;;;;;;;5099830;28;20258;-69
2021/06/11 10:24:10;;;;;;;0.00;0.00;;;;;;;;;;5103305;28;20376;-68
2021/06/11 10:26:37;;;;;;;0.00;0.00;;;;;;;;;;5104898;28;20572;-69
2021/06/11 10:29:03;;;;;;;0.00;0.00;;;;;;;;;;5088033;28;20210;-68
2021/06/11 10:31:35;;;;;;;0.00;0.00;;;;;;;;;;5096094;28;20202;-69
2021/06/11 10:34:03;;;;;;;0.00;0.00;;;;;;;;;;5096612;28;20195;-69
2021/06/11 10:36:38;;;;;;;0.00;0.00;;;;;;;;;;5104192;28;20194;-70
2021/06/11 10:39:26;;;;;;;0.00;0.00;;;;;;;;;;5096108;28;20238;-70
2021/06/11 10:41:55;;;;;;;0.32;0.32;;;;;;;;;;5090861;28;20196;-70
2021/06/11 10:44:29;;;;;;;0.47;0.47;;;;;;;;;;5100280;28;20207;-70
2021/06/11 10:47:17;;;;;;;0.00;0.00;;;;;;;;;;5097527;28;20211;-70
2021/06/11 10:49:58;;;;;;;0.00;0.00;;;;;;;;;;5096039;28;20287;-69
2021/06/11 10:52:32;;;;;;;0.00;0.00;;;;;;;;;;5090929;28;20203;-71
2021/06/11 10:55:18;;;;;;;0.00;0.00;;;;;;;;;;5095051;28;20202;-70
2021/06/11 10:57:44;;;;;;;0.00;0.00;;;;;;;;;;5098056;28;20486;-70
2021/06/11 11:00:30;;;;;;;0.00;0.00;;;;;;;;;;5099749;28;20292;-69
2021/06/11 11:09:13;;;;;;;0.00;0.00;;;;;;;;;;5090651;28;20249;-70
2021/06/11 11:11:41;;;;;;;0.00;0.00;;;;;;;;;;5103257;28;20203;-70
2021/06/11 11:14:27;;;;;;;0.00;0.00;;;;;;;;;;5100223;28;20209;-71
2021/06/11 11:16:57;;;;;;;0.00;0.00;;;;;;;;;;5105782;28;20262;-71
2021/06/11 11:19:43;;;;;;;0.00;0.00;;;;;;;;;;5107711;28;20284;-70
2021/06/11 11:22:09;;;;;;;0.00;0.00;;;;;;;;;;5097567;28;20365;-69
2021/06/11 11:24:37;;;;;;;0.40;0.40;;;;;;;;;;5094858;28;20242;-69
2021/06/11 11:27:03;;;;;;;0.00;0.00;;;;;;;;;;5104525;28;20281;-70
2021/06/11 11:29:29;;;;;;;0.00;0.00;;;;;;;;;;5103290;28;20489;-70
2021/06/11 11:32:10;;;;;;;0.00;0.00;;;;;;;;;;5060310;28;20437;-70
2021/06/11 11:34:36;;;;;;;0.00;0.00;;;;;;;;;;5098840;28;20208;-70
2021/06/11 11:37:03;;;;;;;0.00;0.00;;;;;;;;;;5095213;28;20535;-69
2021/06/11 11:39:29;;;;;;;0.00;0.00;;;;;;;;;;5103496;28;20209;-70
2021/06/11 11:41:56;;;;;;;0.00;0.00;;;;;;;;;;5108948;28;20210;-69
2021/06/11 11:44:22;;;;;;;0.10;0.10;;;;;;;;;;5100748;28;20214;-69
2021/06/11 11:46:49;;;;;;;0.00;0.00;;;;;;;;;;5101462;28;20222;-69
2021/06/11 11:49:15;;;;;;;0.10;0.10;;;;;;;;;;5097843;28;20429;-69
2021/06/11 11:51:41;;;;;;;0.28;0.28;;;;;;;;;;5105862;28;20198;-69
2021/06/11 11:54:07;;;;;;;0.00;0.00;;;;;;;;;;5107071;28;20203;-69
2021/06/11 11:56:33;;;;;;;0.00;0.00;;;;;;;;;;5108011;28;20199;-70
2021/06/11 11:59:06;;;;;;;0.00;0.00;;;;;;;;;;5105995;28;20510;-70
2021/06/11 12:01:32;;;;;;;0.13;0.13;;;;;;;;;;5104545;28;20214;-70
2021/06/11 12:03:58;;;;;;;0.00;0.00;;;;;;;;;;5112048;28;20206;-69
2021/06/11 12:06:24;;;;;;;0.00;0.00;;;;;;;;;;5104262;28;20533;-69
2021/06/11 12:08:50;;;;;;;0.00;0.00;;;;;;;;;;5109700;28;20199;-68
2021/06/11 12:11:16;;;;;;;0.00;0.00;;;;;;;;;;5112842;28;20202;-68
2021/06/11 12:13:43;;;;;;;0.00;0.00;;;;;;;;;;5101131;28;20225;-68
2021/06/11 12:16:10;;;;;;;0.43;0.43;;;;;;;;;;5104472;28;20234;-69
2021/06/11 12:18:37;;;;;;;4.57;0.90;;;;;;;;;;5108587;28;20271;-69
2021/06/11 12:21:04;;;;;;;0.00;0.00;;;;;;;;;;5101296;28;20209;-71
2021/06/11 12:23:30;;;;;;;0.00;0.00;;;;;;;;;;5089268;28;20217;-70
2021/06/11 12:25:56;;;;;;;0.00;0.00;;;;;;;;;;5101929;28;20520;-69
2021/06/11 12:28:22;;;;;;;0.00;0.00;;;;;;;;;;5102877;28;20226;-70
2021/06/11 12:30:48;;;;;;;0.20;0.20;;;;;;;;;;5104652;28;20257;-70
2021/06/11 12:33:16;;;;;;;0.00;0.00;;;;;;;;;;5114645;28;20255;-71
2021/06/11 12:35:42;;;;;;;0.00;0.00;;;;;;;;;;5108296;28;20257;-70
2021/06/11 12:38:08;;;;;;;0.00;0.00;;;;;;;;;;5099825;28;20230;-71
2021/06/11 12:40:37;;;;;;;0.00;0.00;;;;;;;;;;5102618;28;20203;-71
2021/06/11 12:43:05;;;;;;;0.00;0.00;;;;;;;;;;5107620;28;20350;-71
2021/06/11 12:45:31;;;;;;;0.00;0.00;;;;;;;;;;5097010;28;20211;-71
2021/06/11 12:47:58;;;;;;;0.00;0.00;;;;;;;;;;5108279;28;20233;-69
2021/06/11 12:50:25;;;;;;;0.00;0.00;;;;;;;;;;5099861;28;20203;-70
2021/06/11 12:52:51;;;;;;;0.00;0.00;;;;;;;;;;5108523;28;20229;-70
2021/06/11 12:55:17;;;;;;;0.15;0.15;;;;;;;;;;5105120;28;20478;-70
2021/06/11 12:57:44;;;;;;;0.00;0.00;;;;;;;;;;5100288;28;20231;-70
2021/06/11 13:00:10;;;;;;;0.00;0.00;;;;;;;;;;5110377;28;20234;-69
2021/06/11 13:02:37;;;;;;;0.00;0.00;;;;;;;;;;5094655;28;20490;-71
2021/06/11 13:05:03;;;;;;;0.00;0.00;;;;;;;;;;5098666;28;20290;-71
2021/06/11 13:07:31;;;;;;;0.00;0.00;;;;;;;;;;5117353;28;20219;-70
2021/06/11 13:09:57;;;;;;;0.00;0.00;;;;;;;;;;5098808;28;20233;-70
2021/06/11 13:12:24;;;;;;;0.00;0.00;;;;;;;;;;5109494;28;20275;-70
2021/06/11 13:14:50;;;;;;;0.00;0.00;;;;;;;;;;5117316;28;20217;-70
2021/06/11 13:17:16;;;;;;;0.00;0.00;;;;;;;;;;5111360;28;20199;-69
2021/06/11 13:19:42;;;;;;;0.00;0.00;;;;;;;;;;5108447;28;20369;-71
2021/06/11 13:22:09;;;;;;;0.00;0.00;;;;;;;;;;5100061;28;20206;-69
2021/06/11 13:24:36;;;;;;;0.00;0.00;;;;;;;;;;5109104;28;20257;-69
2021/06/11 13:27:02;;;;;;;0.00;0.00;;;;;;;;;;5106752;28;20211;-69
2021/06/11 13:29:29;;;;;;;0.10;0.10;;;;;;;;;;5095549;28;20378;-69
2021/06/11 13:31:55;;;;;;;0.00;0.00;;;;;;;;;;5093179;28;20461;-69
2021/06/11 13:34:21;;;;;;;0.00;0.00;;;;;;;;;;5102596;28;20206;-69
2021/06/11 13:36:47;;;;;;;0.00;0.00;;;;;;;;;;5122313;28;20493;-70
2021/06/11 13:39:14;;;;;;;0.00;0.00;;;;;;;;;;5107615;28;20267;-69
2021/06/11 13:41:41;;;;;;;0.00;0.00;;;;;;;;;;5118599;28;20390;-69
2021/06/11 13:44:07;;;;;;;0.00;0.00;;;;;;;;;;5117003;28;20207;-69
2021/06/11 13:46:34;;;;;;;0.00;0.00;;;;;;;;;;5116119;28;20486;-69
2021/06/11 13:49:00;;;;;;;0.08;0.08;;;;;;;;;;5099784;28;20207;-68
2021/06/11 13:51:26;;;;;;;0.00;0.00;;;;;;;;;;5095674;28;20208;-70
2021/06/11 13:53:52;;;;;;;0.00;0.00;;;;;;;;;;5102601;28;20209;-66
2021/06/11 13:56:19;;;;;;;0.00;0.00;;;;;;;;;;5097143;28;20325;-66
2021/06/11 13:58:46;;;;;;;0.00;0.00;;;;;;;;;;5101512;28;20214;-68
2021/06/11 14:01:14;;;;;;;0.00;0.00;;;;;;;;;;5104237;28;20497;-67
2021/06/11 14:03:40;;;;;;;0.00;0.00;;;;;;;;;;5104539;28;20537;-67
2021/06/11 14:06:06;;;;;;;0.00;0.00;;;;;;;;;;5114360;28;20523;-67
2021/06/11 14:08:32;;;;;;;0.00;0.00;;;;;;;;;;5110684;28;20234;-67
2021/06/11 14:10:58;;;;;;;0.00;0.00;;;;;;;;;;5096696;28;20272;-67
2021/06/11 14:13:26;;;;;;;0.00;0.00;;;;;;;;;;5095514;28;20263;-67
2021/06/11 14:15:54;;;;;;;0.00;0.00;;;;;;;;;;5109912;28;20207;-66
2021/06/11 14:18:23;;;;;;;0.00;0.00;;;;;;;;;;5112893;28;20202;-67
2021/06/11 14:20:49;;;;;;;0.00;0.00;;;;;;;;;;5099721;28;20491;-67
2021/06/11 14:23:15;;;;;;;0.00;0.00;;;;;;;;;;5094126;28;20206;-66
2021/06/11 14:25:44;;;;;;;0.25;0.25;;;;;;;;;;5103340;28;20230;-69
2021/06/11 14:28:10;;;;;;;0.00;0.00;;;;;;;;;;5105245;28;20231;-67
2021/06/11 14:30:36;;;;;;;0.00;0.00;;;;;;;;;;5103741;28;20206;-65
2021/06/11 14:33:03;;;;;;;0.00;0.00;;;;;;;;;;5110238;28;20198;-64
2021/06/11 14:35:30;;;;;;;0.10;0.10;;;;;;;;;;5100862;28;20270;-68
2021/06/11 14:37:57;;;;;;;0.00;0.00;;;;;;;;;;5102770;28;20202;-65
2021/06/11 14:40:23;;;;;;;0.00;0.00;;;;;;;;;;5096076;28;20202;-65
2021/06/11 14:42:51;;;;;;;0.00;0.00;;;;;;;;;;5103764;28;20199;-66
2021/06/11 14:45:16;;;;;;;0.00;0.00;;;;;;;;;;5101220;28;20198;-64
2021/06/11 14:47:42;;;;;;;0.00;0.00;;;;;;;;;;5106893;28;20423;-68
2021/06/11 14:50:11;;;;;;;0.00;0.00;;;;;;;;;;5103511;28;20203;-67
2021/06/11 14:52:42;;;;;;;0.15;0.15;;;;;;;;;;5105903;28;20210;-67